SBVT/VIX METAR and TAF weather

Enter ICAO airport designator
Station Type Date Time Source
SBVT METAR 2020/09/25 18:00 UTC NOAA

SBVT 251800Z 06012KT 9999 FEW030 26/20 Q1017


Station Type Date Time Source
SBVT Decoded METAR 2020/09/25 18:00 UTC NOAA

Vitoria Aeroporto , Brazil (SBVT) 20-16S 040-17W 4M
Sep 25, 2020 - 02:00 PM EDT / 2020.09.25 1800 UTC
Wind: from the ENE (060 degrees) at 14 MPH (12 KT):0
Visibility: greater than 7 mile(s):0
Sky conditions: mostly clear
Temperature: 78 F (26 C)
Dew Point: 68 F (20 C)
Relative Humidity: 69%
Pressure (altimeter): 30.03 in. Hg (1017 hPa)
ob: SBVT 251800Z 06012KT 9999 FEW030 26/20 Q1017
cycle: 18

Station Type Date Time Source
SBVT TAF 2020/09/25 18:57 UTC NOAA

TAF SBVT 251430Z 2518/2618 05010KT 9999 SCT025 TN21/2609Z TX28/2617Z
BECMG 2520/2523 03007KT 7000 SCT020
BECMG 2600/2603 32005KT SCT017
BECMG 2609/2611 35007KT 9999 FEW025
BECMG 2613/2615 05015KT
RMK PHN

Example: see airport list